South Dos Palos, California
Current Conditions -  °F | °C
As of 9:53 PM on Friday 24 Oct 2014 (Local Time) from KMCE Reporting Station
Clear Clear  
Wind Chill: 65°   Ceiling: Unl
Heat Index: 65°   Visibility: 10mi
Dew Point: 51°   Wind: 5mph
Humidity: 61%   Direction: 240°WSW
Pressure: 29.91"   Gusts: NA
Location:  36.96°N, 120.65°W
Report Text: KMCE 250453Z AUTO 24004KT 10SM CLR 18/11 A2991 RMK AO2 SLP128 T01830106
Loading
Personal Weather Stations






























Interactive Weather Map New forecast layout! Learn more

10-Day Weather Forecast

Advertisements
Track Severe Weather on mobile